createdAt,value
2023-04-26T00:00:11.543Z,34.52
2023-04-26T00:01:12.819Z,35.40
2023-04-26T00:02:10.682Z,39.71
2023-04-26T00:03:11.878Z,31.28
2023-04-26T00:04:10.928Z,34.68
2023-04-26T00:05:12.332Z,37.35
2023-04-26T00:06:10.965Z,36.14
2023-04-26T00:07:11.743Z,34.31
2023-04-26T00:08:11.797Z,32.61
2023-04-26T00:09:11.718Z,35.08
2023-04-26T00:10:10.828Z,28.55
2023-04-26T00:11:10.859Z,30.96
2023-04-26T00:12:11.869Z,39.00
2023-04-26T00:13:11.747Z,38.73
2023-04-26T00:14:11.782Z,29.87
2023-04-26T00:15:11.848Z,29.40
2023-04-26T00:16:11.892Z,35.41
2023-04-26T00:17:10.830Z,32.88
2023-04-26T00:18:11.005Z,34.48
2023-04-26T00:19:11.669Z,34.56
2023-04-26T00:20:11.913Z,33.22
2023-04-26T00:21:10.947Z,37.08
2023-04-26T00:22:10.884Z,29.71
2023-04-26T00:23:11.108Z,28.47
2023-04-26T00:24:12.220Z,28.68
2023-04-26T00:25:11.841Z,37.08
2023-04-26T00:26:11.864Z,25.00
2023-04-26T00:27:11.860Z,38.58
2023-04-26T00:28:11.854Z,32.77
2023-04-26T00:29:11.875Z,33.45
2023-04-26T00:30:10.943Z,28.35
2023-04-26T00:31:12.018Z,30.64
2023-04-26T00:32:12.279Z,32.71
2023-04-26T00:33:12.023Z,27.60
2023-04-26T00:34:10.964Z,28.77
2023-04-26T00:35:12.022Z,34.64
2023-04-26T00:36:12.344Z,33.09
2023-04-26T00:37:12.238Z,37.23
2023-04-26T00:38:12.014Z,30.13
2023-04-26T00:39:11.969Z,29.84
2023-04-26T00:40:12.116Z,32.13
2023-04-26T00:41:12.026Z,28.20
2023-04-26T00:42:11.046Z,31.95
2023-04-26T00:43:12.535Z,30.21
2023-04-26T00:44:12.106Z,39.04
2023-04-26T00:45:11.068Z,29.71
2023-04-26T00:46:11.305Z,32.98
2023-04-26T00:47:12.393Z,33.19
2023-04-26T00:48:12.272Z,33.52
2023-04-26T00:49:12.154Z,32.75
2023-04-26T00:50:12.545Z,35.82
2023-04-26T00:51:12.133Z,29.47
2023-04-26T00:52:12.258Z,29.83
2023-04-26T00:53:11.154Z,36.13
2023-04-26T00:54:11.077Z,34.21
2023-04-26T00:55:11.078Z,37.09
2023-04-26T00:56:12.136Z,34.38
2023-04-26T00:57:11.092Z,37.92
2023-04-26T00:58:11.103Z,36.49
2023-04-26T00:59:12.096Z,26.38
2023-04-26T01:00:12.127Z,37.15
2023-04-26T01:01:11.145Z,36.30
2023-04-26T01:02:12.237Z,38.53
2023-04-26T01:03:12.221Z,30.31
2023-04-26T01:04:11.315Z,31.30
2023-04-26T01:05:12.154Z,27.67
2023-04-26T01:06:11.174Z,30.98
2023-04-26T01:07:12.179Z,32.57
2023-04-26T01:08:11.196Z,30.73
2023-04-26T01:09:12.192Z,28.41
2023-04-26T01:10:13.173Z,29.03
2023-04-26T01:11:12.254Z,29.39
2023-04-26T01:12:11.219Z,30.60
2023-04-26T01:13:12.270Z,31.76
2023-04-26T01:14:12.204Z,32.03
2023-04-26T01:15:11.582Z,38.53
2023-04-26T01:16:12.771Z,29.34
2023-04-26T01:17:11.355Z,41.34
2023-04-26T01:18:11.496Z,37.30
2023-04-26T01:19:12.270Z,36.74
2023-04-26T01:20:11.593Z,30.34
2023-04-26T01:21:12.209Z,29.51
2023-04-26T01:22:12.193Z,35.72
2023-04-26T01:23:12.335Z,32.67
2023-04-26T01:24:12.195Z,39.48
2023-04-26T01:25:11.118Z,26.72
2023-04-26T01:26:11.222Z,37.91
2023-04-26T01:27:12.176Z,30.79
2023-04-26T01:28:12.228Z,29.87
2023-04-26T01:29:12.564Z,34.08
2023-04-26T01:30:12.702Z,30.67
2023-04-26T01:31:11.185Z,39.10
2023-04-26T01:32:12.379Z,30.01
2023-04-26T01:33:12.463Z,37.23
2023-04-26T01:34:12.096Z,30.94
2023-04-26T01:35:12.056Z,32.64
2023-04-26T01:36:12.275Z,30.86
2023-04-26T01:37:12.649Z,32.66
2023-04-26T01:38:12.022Z,32.58
2023-04-26T01:39:12.006Z,32.08
2023-04-26T01:40:10.998Z,31.12
2023-04-26T01:41:11.000Z,35.26
2023-04-26T01:42:12.003Z,34.99
2023-04-26T01:43:10.981Z,33.07
2023-04-26T01:44:11.986Z,37.93
2023-04-26T01:45:11.961Z,32.17
2023-04-26T01:46:11.966Z,30.81
2023-04-26T01:47:11.971Z,31.33
2023-04-26T01:48:10.943Z,34.83
2023-04-26T01:49:11.925Z,34.48
2023-04-26T01:50:12.028Z,30.93
2023-04-26T01:51:11.912Z,36.36
2023-04-26T01:52:11.905Z,33.67
2023-04-26T01:53:11.893Z,33.33
2023-04-26T01:54:11.898Z,32.58
2023-04-26T01:55:11.882Z,35.45
2023-04-26T01:56:11.937Z,34.57
2023-04-26T01:57:10.881Z,32.43
2023-04-26T01:58:11.864Z,29.17
2023-04-26T01:59:11.851Z,34.77
2023-04-26T02:00:10.861Z,29.67
2023-04-26T02:01:10.867Z,33.66
2023-04-26T02:02:10.901Z,29.68
2023-04-26T02:03:10.913Z,30.94
2023-04-26T02:04:11.820Z,26.09
2023-04-26T02:05:11.891Z,34.96
2023-04-26T02:06:10.799Z,29.63
2023-04-26T02:07:11.815Z,29.78
2023-04-26T02:08:10.857Z,37.33
2023-04-26T02:09:11.825Z,34.40
2023-04-26T02:10:11.842Z,32.46
2023-04-26T02:11:11.848Z,39.10
2023-04-26T02:12:10.887Z,35.48
2023-04-26T02:13:11.903Z,41.31
2023-04-26T02:14:11.947Z,32.81
2023-04-26T02:15:10.923Z,26.34
2023-04-26T02:16:11.008Z,36.32
2023-04-26T02:17:11.970Z,41.38
2023-04-26T02:18:11.978Z,27.47
2023-04-26T02:19:11.975Z,34.78
2023-04-26T02:20:12.018Z,28.69
2023-04-26T02:21:11.010Z,34.56
2023-04-26T02:22:11.008Z,38.16
2023-04-26T02:23:12.024Z,33.42
2023-04-26T02:24:12.029Z,33.61
2023-04-26T02:25:12.047Z,37.03
2023-04-26T02:26:12.084Z,28.54
2023-04-26T02:27:12.073Z,39.02
2023-04-26T02:28:11.123Z,36.36
2023-04-26T02:29:11.113Z,33.01
2023-04-26T02:30:11.132Z,36.25
2023-04-26T02:31:11.270Z,35.12
2023-04-26T02:32:11.277Z,32.54
2023-04-26T02:33:12.187Z,34.91
2023-04-26T02:34:11.212Z,36.39
2023-04-26T02:35:12.222Z,32.34
2023-04-26T02:36:12.231Z,28.56
2023-04-26T02:37:11.269Z,38.39
2023-04-26T02:38:12.288Z,35.37
2023-04-26T02:39:11.325Z,36.80
2023-04-26T02:40:12.343Z,35.54
2023-04-26T02:41:12.412Z,34.37
2023-04-26T02:42:13.663Z,33.95
2023-04-26T02:43:11.613Z,31.76
2023-04-26T02:44:12.593Z,28.59
2023-04-26T02:45:12.052Z,35.29
2023-04-26T02:46:12.678Z,34.34
2023-04-26T02:47:12.097Z,33.39
2023-04-26T02:48:11.764Z,36.35
2023-04-26T02:49:12.757Z,32.23
2023-04-26T02:50:12.123Z,30.24
2023-04-26T02:51:11.852Z,35.66
2023-04-26T02:52:11.967Z,34.77
2023-04-26T02:53:12.259Z,38.57
2023-04-26T02:54:11.985Z,40.32
2023-04-26T02:55:11.968Z,33.53
2023-04-26T02:56:12.018Z,30.91
2023-04-26T02:57:13.073Z,32.06
2023-04-26T02:58:11.968Z,35.15
2023-04-26T02:59:13.074Z,28.34
2023-04-26T03:00:12.939Z,36.92
2023-04-26T03:01:13.092Z,35.46
2023-04-26T03:02:12.103Z,38.13
2023-04-26T03:03:13.612Z,32.15
2023-04-26T03:04:12.991Z,34.15
2023-04-26T03:05:12.074Z,31.03
2023-04-26T03:06:13.035Z,39.29
2023-04-26T03:07:13.063Z,35.86
2023-04-26T03:08:11.902Z,42.77
2023-04-26T03:09:12.900Z,38.20
2023-04-26T03:10:12.184Z,38.90
2023-04-26T03:11:12.159Z,35.58
2023-04-26T03:12:12.055Z,37.15
2023-04-26T03:13:12.995Z,41.59
2023-04-26T03:14:12.001Z,37.90
2023-04-26T03:15:11.938Z,43.67
2023-04-26T03:16:13.148Z,33.03
2023-04-26T03:17:13.312Z,40.32
2023-04-26T03:18:11.901Z,44.55
2023-04-26T03:19:12.975Z,37.88
2023-04-26T03:20:11.884Z,43.99
2023-04-26T03:21:12.875Z,41.63
2023-04-26T03:22:12.910Z,45.53
2023-04-26T03:23:12.375Z,39.26
2023-04-26T03:24:13.153Z,44.34
2023-04-26T03:25:12.884Z,46.25
2023-04-26T03:26:13.162Z,43.65
2023-04-26T03:27:12.881Z,38.40
2023-04-26T03:28:11.863Z,42.13
2023-04-26T03:29:12.875Z,47.38
2023-04-26T03:30:12.954Z,43.94
2023-04-26T03:31:12.207Z,49.07
2023-04-26T03:32:12.966Z,42.47
2023-04-26T03:33:12.984Z,42.82
2023-04-26T03:34:11.933Z,47.54
2023-04-26T03:35:12.901Z,42.38
2023-04-26T03:36:12.002Z,41.99
2023-04-26T03:37:11.870Z,53.55
2023-04-26T03:38:12.882Z,38.85
2023-04-26T03:39:11.839Z,38.78
2023-04-26T03:40:12.838Z,43.40
2023-04-26T03:41:11.814Z,40.16
2023-04-26T03:42:12.840Z,44.45
2023-04-26T03:43:11.840Z,44.40
2023-04-26T03:44:11.840Z,44.97
2023-04-26T03:45:12.794Z,41.33
2023-04-26T03:46:11.878Z,46.88
2023-04-26T03:47:11.806Z,48.34
2023-04-26T03:48:12.913Z,43.09
2023-04-26T03:49:12.795Z,40.79
2023-04-26T03:50:11.799Z,43.53
2023-04-26T03:51:12.797Z,47.84
2023-04-26T03:52:12.832Z,44.43
2023-04-26T03:53:12.839Z,48.36
2023-04-26T03:54:12.804Z,39.25
2023-04-26T03:55:12.814Z,43.52
2023-04-26T03:56:12.836Z,49.02
2023-04-26T03:57:12.967Z,51.64
2023-04-26T03:58:12.821Z,48.54
2023-04-26T03:59:11.834Z,49.15
2023-04-26T04:00:12.817Z,46.43
2023-04-26T04:01:11.821Z,43.15
2023-04-26T04:02:12.983Z,43.21
2023-04-26T04:03:12.156Z,44.46
2023-04-26T04:04:13.059Z,46.37
2023-04-26T04:05:12.844Z,42.07
2023-04-26T04:06:12.953Z,46.57
2023-04-26T04:07:12.905Z,52.82
2023-04-26T04:08:12.037Z,43.53
2023-04-26T04:09:11.915Z,41.24
2023-04-26T04:10:13.251Z,46.81
2023-04-26T04:11:11.837Z,46.57
2023-04-26T04:12:11.783Z,45.58
2023-04-26T04:13:12.706Z,44.15
2023-04-26T04:14:12.773Z,40.88
2023-04-26T04:15:12.930Z,44.53
2023-04-26T04:16:12.867Z,41.62
2023-04-26T04:17:11.761Z,46.79
2023-04-26T04:18:12.801Z,47.23
2023-04-26T04:19:12.739Z,50.19
2023-04-26T04:20:12.747Z,46.20
2023-04-26T04:21:12.714Z,48.14
2023-04-26T04:22:12.735Z,43.27
2023-04-26T04:23:11.744Z,52.53
2023-04-26T04:24:12.718Z,45.27
2023-04-26T04:25:11.705Z,41.49
2023-04-26T04:26:12.813Z,44.78
2023-04-26T04:27:11.738Z,42.43
2023-04-26T04:28:11.788Z,48.80
2023-04-26T04:29:11.739Z,41.98
2023-04-26T04:30:12.743Z,49.27
2023-04-26T04:31:11.746Z,50.37
2023-04-26T04:32:11.706Z,47.64
2023-04-26T04:33:12.692Z,39.14
2023-04-26T04:34:12.721Z,44.84
2023-04-26T04:35:12.678Z,44.38
2023-04-26T04:36:11.679Z,39.59
2023-04-26T04:37:12.678Z,46.09
2023-04-26T04:38:11.656Z,42.04
2023-04-26T04:39:12.689Z,38.83
2023-04-26T04:40:11.936Z,45.26
2023-04-26T04:41:12.652Z,43.05
2023-04-26T04:42:12.677Z,39.52
2023-04-26T04:43:12.702Z,53.75
2023-04-26T04:44:11.639Z,42.73
2023-04-26T04:45:11.679Z,45.51
2023-04-26T04:46:12.977Z,46.88
2023-04-26T04:47:11.638Z,41.79
2023-04-26T04:48:11.796Z,47.06
2023-04-26T04:49:12.659Z,46.29
2023-04-26T04:50:11.668Z,44.91
2023-04-26T04:51:12.714Z,41.68
2023-04-26T04:52:11.686Z,42.25
2023-04-26T04:53:11.718Z,46.36
2023-04-26T04:54:12.765Z,44.14
2023-04-26T04:55:12.773Z,40.67
2023-04-26T04:56:12.844Z,38.26
2023-04-26T04:57:12.816Z,45.42
2023-04-26T04:58:12.846Z,44.92
2023-04-26T04:59:12.847Z,47.94
2023-04-26T05:00:12.830Z,44.87
2023-04-26T05:01:11.845Z,52.58
2023-04-26T05:02:11.978Z,47.43
2023-04-26T05:03:12.010Z,52.13
2023-04-26T05:04:12.052Z,43.71
2023-04-26T05:05:12.938Z,49.33
2023-04-26T05:06:11.927Z,48.58
2023-04-26T05:07:12.934Z,52.00
2023-04-26T05:08:11.991Z,51.10
2023-04-26T05:09:11.954Z,45.28
2023-04-26T05:10:12.978Z,46.52
2023-04-26T05:11:11.989Z,55.31
2023-04-26T05:12:12.038Z,53.67
2023-04-26T05:13:12.019Z,56.21
2023-04-26T05:14:13.044Z,56.49
2023-04-26T05:15:13.005Z,57.59
2023-04-26T05:16:12.013Z,52.85
2023-04-26T05:17:13.049Z,54.00
2023-04-26T05:18:12.072Z,52.07
2023-04-26T05:19:13.004Z,52.20
2023-04-26T05:20:11.985Z,52.74
2023-04-26T05:21:12.040Z,48.93
2023-04-26T05:22:12.998Z,48.30
2023-04-26T05:23:12.998Z,51.60
2023-04-26T05:24:12.996Z,51.04
2023-04-26T05:25:13.022Z,50.61
2023-04-26T05:26:12.004Z,51.01
2023-04-26T05:27:13.097Z,60.18
2023-04-26T05:28:13.056Z,49.79
2023-04-26T05:29:13.058Z,59.38
2023-04-26T05:30:12.084Z,55.98
2023-04-26T05:31:13.152Z,55.80
2023-04-26T05:32:13.170Z,52.97
2023-04-26T05:33:12.310Z,56.70
2023-04-26T05:34:13.185Z,62.03
2023-04-26T05:35:12.541Z,61.78
2023-04-26T05:36:13.254Z,69.91
2023-04-26T05:37:13.254Z,74.67
2023-04-26T05:38:13.255Z,59.20
2023-04-26T05:39:12.357Z,69.32
2023-04-26T05:40:14.118Z,63.24
2023-04-26T05:41:12.492Z,62.09
2023-04-26T05:42:14.674Z,56.22
2023-04-26T05:43:12.663Z,56.43
2023-04-26T05:44:12.979Z,54.28
2023-04-26T05:45:13.904Z,57.96
2023-04-26T05:46:13.685Z,59.56
2023-04-26T05:47:16.730Z,61.44
2023-04-26T05:48:14.000Z,4.04
2023-04-26T05:49:14.282Z,0.00
2023-04-26T05:50:14.578Z,13.38
2023-04-26T05:51:14.159Z,0.00
2023-04-26T05:52:12.835Z,0.00
2023-04-26T05:53:13.034Z,0.00
2023-04-26T05:54:12.887Z,0.00
2023-04-26T05:55:12.913Z,0.00
2023-04-26T05:56:14.455Z,3.24
2023-04-26T05:57:13.081Z,27.45
2023-04-26T05:58:14.946Z,18.86
2023-04-26T05:59:14.148Z,13.88
2023-04-26T06:00:13.770Z,0.00
2023-04-26T06:01:14.042Z,15.33
2023-04-26T06:02:12.877Z,16.71
2023-04-26T06:03:14.714Z,24.45
2023-04-26T06:04:13.921Z,35.08
2023-04-26T06:05:13.214Z,57.81
2023-04-26T06:06:14.436Z,87.22
2023-04-26T06:07:13.948Z,112.72
2023-04-26T06:08:12.803Z,125.57
2023-04-26T06:09:12.824Z,132.78
2023-04-26T06:10:12.898Z,139.05
2023-04-26T06:11:12.990Z,140.93
2023-04-26T06:12:13.977Z,141.81
2023-04-26T06:13:13.045Z,147.48
2023-04-26T06:14:29.468Z,147.34
2023-04-26T06:15:14.077Z,147.60
2023-04-26T06:16:14.284Z,148.48
2023-04-26T06:17:14.152Z,148.46
2023-04-26T06:18:14.113Z,150.07
2023-04-26T06:19:13.004Z,150.37
2023-04-26T06:20:13.012Z,157.34
2023-04-26T06:21:13.001Z,165.35
2023-04-26T06:22:14.010Z,161.57
2023-04-26T06:23:13.105Z,163.59
2023-04-26T06:24:13.983Z,162.00
2023-04-26T06:25:12.984Z,161.25
2023-04-26T06:26:13.969Z,165.67
2023-04-26T06:27:13.984Z,163.37
2023-04-26T06:28:13.967Z,155.58
2023-04-26T06:29:13.975Z,162.32
2023-04-26T06:30:12.939Z,168.52
2023-04-26T06:31:12.979Z,159.51
2023-04-26T06:32:13.949Z,160.62
2023-04-26T06:33:13.929Z,160.35
2023-04-26T06:34:14.431Z,171.01
2023-04-26T06:35:13.973Z,159.71
2023-04-26T06:36:14.021Z,158.03
2023-04-26T06:37:13.965Z,165.58
2023-04-26T06:38:13.912Z,158.27
2023-04-26T06:39:13.954Z,162.52
2023-04-26T06:40:14.095Z,167.09
2023-04-26T06:41:13.868Z,165.46
2023-04-26T06:42:12.882Z,168.51
2023-04-26T06:43:13.861Z,162.36
2023-04-26T06:44:14.069Z,167.47
2023-04-26T06:45:12.840Z,168.41
2023-04-26T06:46:13.926Z,168.60
2023-04-26T06:47:13.840Z,165.31
2023-04-26T06:48:13.026Z,167.63
2023-04-26T06:49:13.834Z,168.11
2023-04-26T06:50:13.803Z,170.35
2023-04-26T06:51:13.890Z,174.26
2023-04-26T06:52:12.808Z,177.00
2023-04-26T06:53:14.968Z,184.70
2023-04-26T06:54:13.774Z,196.37
2023-04-26T06:55:13.773Z,202.31
2023-04-26T06:56:13.776Z,207.39
2023-04-26T06:57:13.799Z,209.26
2023-04-26T06:58:12.973Z,212.11
2023-04-26T06:59:13.862Z,222.27
2023-04-26T07:00:14.029Z,228.39
2023-04-26T07:01:13.950Z,225.19
2023-04-26T07:02:15.525Z,231.70
2023-04-26T07:03:14.186Z,232.78
2023-04-26T07:04:13.997Z,239.64
2023-04-26T07:05:15.742Z,241.24
2023-04-26T07:06:12.932Z,241.33
2023-04-26T07:07:13.949Z,232.20
2023-04-26T07:08:13.889Z,235.23
2023-04-26T07:09:14.113Z,237.17
2023-04-26T07:10:13.891Z,235.88
2023-04-26T07:11:13.854Z,232.69
2023-04-26T07:12:13.880Z,233.96
2023-04-26T07:13:12.895Z,227.39
2023-04-26T07:14:13.825Z,230.21
2023-04-26T07:15:13.806Z,223.87
2023-04-26T07:16:12.876Z,221.24
2023-04-26T07:17:12.975Z,225.20
2023-04-26T07:18:13.821Z,223.06
2023-04-26T07:19:13.770Z,223.59
2023-04-26T07:20:13.843Z,221.79
2023-04-26T07:21:12.763Z,220.12
2023-04-26T07:22:13.766Z,230.32
2023-04-26T07:23:13.829Z,236.70
2023-04-26T07:24:13.822Z,226.38
2023-04-26T07:25:12.740Z,232.97
2023-04-26T07:26:12.764Z,231.02
2023-04-26T07:27:13.738Z,222.68
2023-04-26T07:28:13.911Z,217.95
2023-04-26T07:29:13.732Z,224.60
2023-04-26T07:30:13.703Z,225.55
2023-04-26T07:31:14.463Z,241.82
2023-04-26T07:32:12.793Z,239.21
2023-04-26T07:33:13.999Z,229.57
2023-04-26T07:34:13.676Z,226.34
2023-04-26T07:35:12.730Z,234.30
2023-04-26T07:36:13.703Z,231.70
2023-04-26T07:37:12.669Z,230.09
2023-04-26T07:38:13.657Z,229.60
2023-04-26T07:39:12.652Z,227.25
2023-04-26T07:40:13.727Z,220.44
2023-04-26T07:41:12.682Z,220.07
2023-04-26T07:42:12.764Z,221.46
2023-04-26T07:43:13.646Z,218.10
2023-04-26T07:44:13.600Z,220.02
2023-04-26T07:45:12.612Z,212.50
2023-04-26T07:46:12.971Z,221.57
2023-04-26T07:47:13.639Z,222.85
2023-04-26T07:48:14.054Z,226.19
2023-04-26T07:49:12.712Z,217.43
2023-04-26T07:50:13.561Z,205.23
2023-04-26T07:51:12.553Z,211.35
2023-04-26T07:52:12.613Z,203.97
2023-04-26T07:53:13.972Z,202.88
2023-04-26T07:54:13.586Z,116.91
2023-04-26T07:55:14.140Z,29.62
2023-04-26T07:56:13.556Z,6.34
2023-04-26T07:57:12.551Z,61.53
2023-04-26T07:58:13.616Z,96.88
2023-04-26T07:59:13.713Z,112.99
2023-04-26T08:00:12.684Z,121.83
2023-04-26T08:01:13.702Z,179.31
2023-04-26T08:02:12.883Z,203.96
2023-04-26T08:03:13.062Z,218.45
2023-04-26T08:04:14.016Z,222.93
2023-04-26T08:05:14.041Z,222.83
2023-04-26T08:06:13.881Z,231.75
2023-04-26T08:07:12.830Z,227.73
2023-04-26T08:08:13.006Z,235.81
2023-04-26T08:09:13.799Z,235.08
2023-04-26T08:10:12.804Z,238.62
2023-04-26T08:11:13.830Z,239.62
2023-04-26T08:12:13.920Z,244.55
2023-04-26T08:13:13.848Z,244.88
2023-04-26T08:14:14.014Z,241.22
2023-04-26T08:15:13.908Z,236.93
2023-04-26T08:16:13.969Z,243.09
2023-04-26T08:17:12.936Z,245.16
2023-04-26T08:18:13.934Z,245.68
2023-04-26T08:19:12.975Z,241.83
2023-04-26T08:20:13.994Z,242.82
2023-04-26T08:21:14.076Z,242.55
2023-04-26T08:22:14.050Z,240.58
2023-04-26T08:23:13.125Z,238.86
2023-04-26T08:24:14.293Z,240.53
2023-04-26T08:25:13.191Z,243.59
2023-04-26T08:26:14.221Z,244.09
2023-04-26T08:27:14.367Z,240.84
2023-04-26T08:28:13.278Z,239.89
2023-04-26T08:29:13.377Z,238.68
2023-04-26T08:30:14.384Z,241.14
2023-04-26T08:31:14.253Z,243.55
2023-04-26T08:32:13.565Z,246.07
2023-04-26T08:33:14.555Z,242.47
2023-04-26T08:34:13.615Z,243.76
2023-04-26T08:35:14.635Z,241.43
2023-04-26T08:36:14.839Z,244.67
2023-04-26T08:37:14.784Z,240.44
2023-04-26T08:38:14.801Z,246.96
2023-04-26T08:39:14.874Z,249.55
2023-04-26T08:40:13.944Z,248.28
2023-04-26T08:41:13.987Z,250.00
2023-04-26T08:42:15.075Z,245.39
2023-04-26T08:43:15.028Z,248.51
2023-04-26T08:44:14.014Z,247.20
2023-04-26T08:45:14.001Z,246.27
2023-04-26T08:46:15.068Z,216.48
2023-04-26T08:47:14.120Z,197.88
2023-04-26T08:48:14.129Z,174.66
2023-04-26T08:49:15.183Z,173.36
2023-04-26T08:50:14.155Z,180.24
2023-04-26T08:51:15.181Z,179.13
2023-04-26T08:52:14.265Z,171.01
2023-04-26T08:53:14.317Z,157.48
2023-04-26T08:54:15.339Z,166.93
2023-04-26T08:55:14.325Z,166.58
2023-04-26T08:56:14.406Z,166.17
2023-04-26T08:57:15.440Z,172.86
2023-04-26T08:58:15.442Z,170.01
2023-04-26T08:59:15.018Z,176.56
2023-04-26T09:00:15.463Z,181.18
2023-04-26T09:01:15.537Z,174.50
2023-04-26T09:02:14.544Z,176.12
2023-04-26T09:03:14.556Z,180.43
2023-04-26T09:04:14.737Z,194.65
2023-04-26T09:05:14.808Z,208.20
2023-04-26T09:06:15.532Z,212.58
2023-04-26T09:07:15.613Z,211.33
2023-04-26T09:08:15.731Z,206.89
2023-04-26T09:09:15.728Z,207.74
2023-04-26T09:10:15.843Z,210.16
2023-04-26T09:11:15.846Z,207.78
2023-04-26T09:12:15.918Z,189.27
2023-04-26T09:13:15.009Z,193.64
2023-04-26T09:14:16.015Z,209.63
2023-04-26T09:15:15.056Z,211.95
2023-04-26T09:16:16.160Z,218.02
2023-04-26T09:17:16.133Z,219.80
2023-04-26T09:18:16.196Z,217.52
2023-04-26T09:19:15.270Z,217.68
2023-04-26T09:20:16.233Z,201.14
2023-04-26T09:21:16.299Z,192.72
2023-04-26T09:22:15.388Z,184.30
2023-04-26T09:23:15.398Z,186.41
2023-04-26T09:24:16.441Z,201.66
2023-04-26T09:25:16.601Z,214.24
2023-04-26T09:26:15.581Z,216.13
2023-04-26T09:27:15.629Z,214.47
2023-04-26T09:28:16.731Z,226.98
2023-04-26T09:29:16.782Z,219.70
2023-04-26T09:30:16.804Z,214.30
2023-04-26T09:31:16.952Z,215.37
2023-04-26T09:32:15.916Z,216.80
2023-04-26T09:33:17.011Z,219.33
2023-04-26T09:34:16.120Z,209.80
2023-04-26T09:35:16.074Z,211.93
2023-04-26T09:36:16.110Z,202.48
2023-04-26T09:37:17.152Z,206.05
2023-04-26T09:38:17.228Z,200.22
2023-04-26T09:39:17.312Z,208.52
2023-04-26T09:40:17.360Z,213.72
2023-04-26T09:41:17.395Z,203.54
2023-04-26T09:42:16.456Z,210.41
2023-04-26T09:43:17.587Z,239.26
2023-04-26T09:44:16.661Z,232.61
2023-04-26T09:45:23.631Z,231.57
2023-04-26T09:46:17.610Z,230.64
2023-04-26T09:47:17.594Z,223.64
2023-04-26T09:48:16.637Z,209.01
2023-04-26T09:49:17.201Z,215.49
2023-04-26T09:50:17.575Z,192.25
2023-04-26T09:51:17.555Z,190.04
2023-04-26T09:52:17.559Z,180.16
2023-04-26T09:53:16.551Z,179.17
2023-04-26T09:54:17.547Z,176.43
2023-04-26T09:55:31.035Z,172.15
2023-04-26T09:56:17.580Z,172.41
2023-04-26T09:57:17.542Z,173.16
2023-04-26T09:58:17.514Z,172.86
2023-04-26T09:59:17.499Z,159.90
2023-04-26T10:00:16.546Z,175.64
2023-04-26T10:01:17.524Z,183.63
2023-04-26T10:02:16.557Z,192.98
2023-04-26T10:03:16.578Z,203.86
2023-04-26T10:04:17.588Z,210.25
2023-04-26T10:05:17.463Z,213.01
2023-04-26T10:06:16.444Z,210.39
2023-04-26T10:07:16.447Z,210.62
2023-04-26T10:08:17.439Z,213.52
2023-04-26T10:09:16.437Z,210.44
2023-04-26T10:10:17.423Z,168.24
2023-04-26T10:11:17.413Z,183.01
2023-04-26T10:12:17.391Z,205.76
2023-04-26T10:13:16.396Z,205.02
2023-04-26T10:14:17.402Z,210.17
2023-04-26T10:15:17.379Z,211.80
2023-04-26T10:16:17.475Z,199.71
2023-04-26T10:17:16.411Z,198.43
2023-04-26T10:18:17.581Z,193.61
2023-04-26T10:19:16.426Z,206.42
2023-04-26T10:20:17.535Z,215.68
2023-04-26T10:21:16.480Z,196.19
2023-04-26T10:22:16.514Z,207.13
2023-04-26T10:23:17.541Z,205.31
2023-04-26T10:24:17.603Z,217.04
2023-04-26T10:25:16.623Z,229.64
2023-04-26T10:26:17.652Z,229.70
2023-04-26T10:27:17.700Z,225.26
2023-04-26T10:28:16.753Z,231.78
2023-04-26T10:29:17.794Z,227.71
2023-04-26T10:30:17.896Z,225.68
2023-04-26T10:31:17.903Z,223.63
2023-04-26T10:32:18.008Z,226.01
2023-04-26T10:33:18.005Z,244.51
2023-04-26T10:34:18.013Z,244.58
2023-04-26T10:35:18.063Z,225.03
2023-04-26T10:36:18.129Z,233.73
2023-04-26T10:37:17.237Z,242.97
2023-04-26T10:38:17.218Z,238.04
2023-04-26T10:39:17.283Z,245.27
2023-04-26T10:40:17.272Z,235.82
2023-04-26T10:41:18.279Z,236.73
2023-04-26T10:42:18.309Z,235.54
2023-04-26T10:43:18.379Z,244.75
2023-04-26T10:44:18.348Z,241.44
2023-04-26T10:45:18.348Z,229.11
2023-04-26T10:46:18.408Z,210.51
2023-04-26T10:47:17.516Z,218.03
2023-04-26T10:48:18.554Z,230.59
2023-04-26T10:49:17.430Z,219.90
2023-04-26T10:50:18.408Z,200.41
2023-04-26T10:51:18.418Z,200.25
2023-04-26T10:52:18.457Z,173.86
2023-04-26T10:53:17.450Z,172.69
2023-04-26T10:54:17.484Z,168.55
2023-04-26T10:55:18.517Z,175.62
2023-04-26T10:56:17.551Z,175.36
2023-04-26T10:57:18.634Z,224.10
2023-04-26T10:58:18.630Z,204.26
2023-04-26T10:59:36.272Z,230.77
2023-04-26T11:00:18.664Z,231.27
2023-04-26T11:01:18.775Z,231.61
2023-04-26T11:02:18.662Z,231.09
2023-04-26T11:03:18.730Z,229.60
2023-04-26T11:04:17.692Z,233.58
2023-04-26T11:05:17.607Z,230.87
2023-04-26T11:06:18.609Z,234.22
2023-04-26T11:07:18.589Z,232.56
2023-04-26T11:08:18.582Z,228.48
2023-04-26T11:09:17.685Z,208.79
2023-04-26T11:10:18.724Z,218.81
2023-04-26T11:11:17.768Z,226.15
2023-04-26T11:12:18.832Z,225.50
2023-04-26T11:13:18.888Z,223.14
2023-04-26T11:14:18.988Z,217.91
2023-04-26T11:15:18.020Z,217.82
2023-04-26T11:16:19.152Z,218.72
2023-04-26T11:17:18.142Z,218.76
2023-04-26T11:18:19.230Z,219.37
2023-04-26T11:19:19.285Z,191.14
2023-04-26T11:20:19.383Z,184.56
2023-04-26T11:21:18.417Z,209.79
2023-04-26T11:22:19.460Z,219.26
2023-04-26T11:23:18.538Z,221.37
2023-04-26T11:24:19.603Z,222.47
2023-04-26T11:25:19.649Z,214.46
2023-04-26T11:26:18.710Z,218.96
2023-04-26T11:27:19.770Z,220.06
2023-04-26T11:28:18.822Z,194.31
2023-04-26T11:29:19.864Z,200.15
2023-04-26T11:30:19.940Z,162.39
2023-04-26T11:31:19.248Z,120.72
2023-04-26T11:32:19.016Z,180.06
2023-04-26T11:33:19.049Z,207.79
2023-04-26T11:34:20.076Z,220.27
2023-04-26T11:35:20.116Z,208.72
2023-04-26T11:36:20.188Z,198.22
2023-04-26T11:37:20.145Z,196.93
2023-04-26T11:38:20.149Z,195.51
2023-04-26T11:39:20.194Z,196.34
2023-04-26T11:40:20.203Z,188.09
2023-04-26T11:41:20.216Z,191.44
2023-04-26T11:42:19.247Z,200.44
2023-04-26T11:43:20.374Z,201.56
2023-04-26T11:44:20.375Z,196.31
2023-04-26T11:45:19.424Z,197.09
2023-04-26T11:46:19.520Z,198.40
2023-04-26T11:47:19.548Z,201.18
2023-04-26T11:48:19.678Z,201.97
2023-04-26T11:49:20.684Z,199.07
2023-04-26T11:50:20.714Z,198.25
2023-04-26T11:51:20.800Z,196.39
2023-04-26T11:52:19.855Z,190.20
2023-04-26T11:53:19.883Z,191.72
2023-04-26T11:54:20.960Z,185.80
2023-04-26T11:55:21.008Z,126.69
2023-04-26T11:56:20.095Z,137.69
2023-04-26T11:57:21.080Z,161.41
2023-04-26T11:58:21.133Z,170.78
2023-04-26T11:59:20.128Z,106.61
2023-04-26T12:00:20.181Z,107.65
2023-04-26T12:01:20.166Z,120.94
2023-04-26T12:02:20.189Z,116.83
2023-04-26T12:03:20.361Z,131.11
2023-04-26T12:04:21.213Z,130.16
2023-04-26T12:05:21.161Z,123.99
2023-04-26T12:06:21.169Z,128.47
2023-04-26T12:07:21.187Z,141.08
2023-04-26T12:08:21.269Z,104.36
2023-04-26T12:09:21.306Z,61.41
2023-04-26T12:10:21.386Z,73.35
2023-04-26T12:11:21.456Z,30.87
2023-04-26T12:12:21.474Z,33.21
2023-04-26T12:13:20.473Z,65.74
2023-04-26T12:14:21.461Z,81.30
2023-04-26T12:15:21.479Z,94.60
2023-04-26T12:17:20.729Z,111.20
2023-04-26T12:18:21.524Z,89.82
2023-04-26T12:19:20.508Z,116.43
2023-04-26T12:20:20.459Z,127.95
2023-04-26T12:21:20.457Z,93.22
2023-04-26T12:22:21.438Z,46.95
2023-04-26T12:23:20.419Z,69.67
2023-04-26T12:24:20.441Z,102.64
2023-04-26T12:25:21.412Z,112.00
2023-04-26T12:26:20.433Z,114.60
2023-04-26T12:27:21.391Z,128.38
2023-04-26T12:28:21.390Z,136.35
2023-04-26T12:29:20.374Z,127.68
2023-04-26T12:30:20.368Z,145.39
2023-04-26T12:31:21.388Z,161.62
2023-04-26T12:32:22.558Z,175.48
2023-04-26T12:33:21.403Z,83.57
2023-04-26T12:34:21.360Z,67.53
2023-04-26T12:35:21.351Z,105.64
2023-04-26T12:36:20.363Z,88.91
2023-04-26T12:37:20.349Z,102.80
2023-04-26T12:38:20.357Z,145.07
2023-04-26T12:39:21.363Z,122.30
2023-04-26T12:40:21.512Z,128.55
2023-04-26T12:41:20.406Z,110.53